BKP102 VTSM-VTBS
Flight info
| Callsign | BKP102 |
|---|---|
| Flight time | 0h 50m |
| Altitude | 36000 |
| Route | OLBAG1A OLBAG Y17 DONSI M769 LEBIM LEBIM1C |
| Aircraft | A319/M-SDE3FGHIRWY/LB1 |
Departure
| Time | 2026-04-23 21:45 |
|---|---|
| Airport | Samui International Airport (VTSM) |
Arrival
| Time | 2026-04-23 22:35 |
|---|---|
| Airport | Suvarnabhumi Airport (VTBS) |
| Time | Latitude | Longitude | Altitude | Speed | Heading |
|---|---|---|---|---|---|
| 2026-04-23 21:38 | 9.55128 | 100.06299 | 49 ft | 0 kts | 354° |
| 2026-04-23 21:40 | 9.55129 | 100.06298 | 49 ft | 0 kts | 345° |
| 2026-04-23 21:40 | 9.55132 | 100.06297 | 48 ft | 2 kts | 343° |
| 2026-04-23 21:40 | 9.55135 | 100.06294 | 51 ft | 1 kts | 323° |
| 2026-04-23 21:40 | 9.55134 | 100.06292 | 51 ft | 0 kts | 295° |
| 2026-04-23 21:41 | 9.55134 | 100.06291 | 51 ft | 0 kts | 289° |
| 2026-04-23 21:42 | 9.55133 | 100.06290 | 51 ft | 1 kts | 275° |
| 2026-04-23 21:42 | 9.55120 | 100.06266 | 51 ft | 6 kts | 242° |
| 2026-04-23 21:42 | 9.55126 | 100.06219 | 49 ft | 8 kts | 314° |
| 2026-04-23 21:43 | 9.55195 | 100.06207 | 49 ft | 12 kts | 354° |
| 2026-04-23 21:43 | 9.55285 | 100.06198 | 53 ft | 14 kts | 354° |
| 2026-04-23 21:43 | 9.55392 | 100.06187 | 53 ft | 17 kts | 354° |
| 2026-04-23 21:43 | 9.55515 | 100.06175 | 53 ft | 19 kts | 355° |
| 2026-04-23 21:44 | 9.55612 | 100.06175 | 53 ft | 12 kts | 12° |
| 2026-04-23 21:44 | 9.55692 | 100.06182 | 53 ft | 6 kts | 348° |
| 2026-04-23 21:44 | 9.55685 | 100.06160 | 53 ft | 5 kts | 192° |
| 2026-04-23 21:44 | 9.55545 | 100.06172 | 53 ft | 48 kts | 174° |
| 2026-04-23 21:45 | 9.54984 | 100.06227 | 51 ft | 112 kts | 174° |
| 2026-04-23 21:45 | 9.54010 | 100.06321 | 114 ft | 161 kts | 175° |
| 2026-04-23 21:45 | 9.52942 | 100.06454 | 883 ft | 153 kts | 166° |
| 2026-04-23 21:45 | 9.51960 | 100.06841 | 1529 ft | 154 kts | 159° |
| 2026-04-23 21:46 | 9.50937 | 100.07271 | 2033 ft | 165 kts | 158° |
| 2026-04-23 21:46 | 9.49815 | 100.07748 | 2309 ft | 189 kts | 158° |
| 2026-04-23 21:46 | 9.48529 | 100.08293 | 2558 ft | 217 kts | 158° |
| 2026-04-23 21:46 | 9.47157 | 100.08992 | 3278 ft | 223 kts | 143° |
| 2026-04-23 21:47 | 9.46274 | 100.10274 | 4107 ft | 227 kts | 105° |
| 2026-04-23 21:47 | 9.46188 | 100.11866 | 4985 ft | 228 kts | 88° |
| 2026-04-23 21:47 | 9.46224 | 100.13490 | 5826 ft | 231 kts | 89° |
| 2026-04-23 21:47 | 9.46242 | 100.15111 | 6716 ft | 232 kts | 89° |
| 2026-04-23 21:48 | 9.46587 | 100.16710 | 7464 ft | 237 kts | 60° |
| 2026-04-23 21:48 | 9.47692 | 100.17939 | 8250 ft | 240 kts | 32° |
| 2026-04-23 21:48 | 9.49253 | 100.18505 | 9069 ft | 241 kts | 8° |
| 2026-04-23 21:48 | 9.50947 | 100.18829 | 9649 ft | 258 kts | 12° |
| 2026-04-23 21:49 | 9.52773 | 100.19283 | 10038 ft | 281 kts | 14° |
| 2026-04-23 21:49 | 9.54687 | 100.19797 | 10656 ft | 291 kts | 14° |
| 2026-04-23 21:49 | 9.56656 | 100.20336 | 11456 ft | 295 kts | 14° |
| 2026-04-23 21:49 | 9.58653 | 100.20880 | 12244 ft | 299 kts | 14° |
| 2026-04-23 21:50 | 9.60678 | 100.21431 | 13014 ft | 302 kts | 14° |
| 2026-04-23 21:50 | 9.62725 | 100.21983 | 13764 ft | 306 kts | 14° |
| 2026-04-23 21:50 | 9.64797 | 100.22541 | 14497 ft | 309 kts | 14° |
| 2026-04-23 21:50 | 9.66891 | 100.23104 | 15213 ft | 313 kts | 14° |
| 2026-04-23 21:51 | 9.69005 | 100.23672 | 15910 ft | 316 kts | 14° |
| 2026-04-23 21:51 | 9.71113 | 100.24236 | 16585 ft | 319 kts | 14° |
| 2026-04-23 21:51 | 9.73273 | 100.24812 | 17250 ft | 323 kts | 14° |
| 2026-04-23 21:51 | 9.75455 | 100.25396 | 17898 ft | 326 kts | 14° |
| 2026-04-23 21:52 | 9.77660 | 100.25988 | 18533 ft | 329 kts | 14° |
| 2026-04-23 21:52 | 9.79883 | 100.26587 | 19153 ft | 332 kts | 14° |
| 2026-04-23 21:52 | 9.82128 | 100.27191 | 19759 ft | 335 kts | 14° |
| 2026-04-23 21:52 | 9.84414 | 100.27803 | 20099 ft | 348 kts | 14° |
| 2026-04-23 21:53 | 9.86815 | 100.28444 | 20229 ft | 366 kts | 14° |
| 2026-04-23 21:53 | 9.89330 | 100.29116 | 20396 ft | 381 kts | 14° |
| 2026-04-23 21:53 | 9.91918 | 100.29809 | 20820 ft | 387 kts | 14° |
| 2026-04-23 21:53 | 9.94539 | 100.30509 | 21334 ft | 391 kts | 14° |
| 2026-04-23 21:54 | 9.97174 | 100.31257 | 21850 ft | 395 kts | 19° |
| 2026-04-23 21:54 | 9.99689 | 100.32396 | 22356 ft | 398 kts | 29° |
| 2026-04-23 21:54 | 10.02096 | 100.33809 | 22847 ft | 401 kts | 30° |
| 2026-04-23 21:54 | 10.04604 | 100.34973 | 23300 ft | 404 kts | 16° |
| 2026-04-23 21:55 | 10.07386 | 100.35380 | 23756 ft | 406 kts | 359° |
| 2026-04-23 21:55 | 10.10225 | 100.35285 | 24215 ft | 408 kts | 357° |
| 2026-04-23 21:55 | 10.13073 | 100.35167 | 24659 ft | 411 kts | 358° |
| 2026-04-23 21:55 | 10.15948 | 100.35142 | 25089 ft | 414 kts | 0° |
| 2026-04-23 21:56 | 10.18837 | 100.35226 | 25509 ft | 417 kts | 2° |
| 2026-04-23 21:56 | 10.21747 | 100.35372 | 25921 ft | 419 kts | 3° |
| 2026-04-23 21:56 | 10.24671 | 100.35542 | 26316 ft | 422 kts | 3° |
| 2026-04-23 21:56 | 10.27614 | 100.35709 | 26714 ft | 424 kts | 2° |
| 2026-04-23 21:57 | 10.30535 | 100.35859 | 27095 ft | 427 kts | 2° |
| 2026-04-23 21:57 | 10.33519 | 100.35996 | 27476 ft | 430 kts | 2° |
| 2026-04-23 21:57 | 10.36513 | 100.36120 | 27848 ft | 432 kts | 2° |
| 2026-04-23 21:57 | 10.39525 | 100.36235 | 28216 ft | 434 kts | 2° |
| 2026-04-23 21:58 | 10.42555 | 100.36350 | 28574 ft | 437 kts | 2° |
| 2026-04-23 21:58 | 10.45602 | 100.36466 | 28922 ft | 439 kts | 2° |
| 2026-04-23 21:58 | 10.48663 | 100.36585 | 29261 ft | 442 kts | 2° |
| 2026-04-23 21:58 | 10.51743 | 100.36710 | 29591 ft | 444 kts | 2° |
| 2026-04-23 21:59 | 10.54839 | 100.36838 | 29902 ft | 446 kts | 2° |
| 2026-04-23 21:59 | 10.60921 | 100.37089 | 30005 ft | 430 kts | 2° |
| 2026-04-23 22:00 | 10.69802 | 100.37452 | 30017 ft | 426 kts | 2° |
| 2026-04-23 22:00 | 10.75867 | 100.37693 | 30011 ft | 446 kts | 2° |
| 2026-04-23 22:01 | 10.82172 | 100.37946 | 30004 ft | 458 kts | 2° |
| 2026-04-23 22:01 | 10.88554 | 100.38207 | 30006 ft | 459 kts | 2° |
| 2026-04-23 22:02 | 10.94896 | 100.38463 | 30010 ft | 459 kts | 2° |
| 2026-04-23 22:02 | 11.01286 | 100.38733 | 30012 ft | 459 kts | 2° |
| 2026-04-23 22:03 | 11.07678 | 100.38996 | 30001 ft | 459 kts | 2° |
| 2026-04-23 22:03 | 11.14059 | 100.39249 | 29997 ft | 459 kts | 2° |
| 2026-04-23 22:04 | 11.20435 | 100.39510 | 29994 ft | 458 kts | 2° |
| 2026-04-23 22:04 | 11.26768 | 100.39769 | 29991 ft | 458 kts | 2° |
| 2026-04-23 22:05 | 11.33136 | 100.40027 | 29989 ft | 458 kts | 2° |
| 2026-04-23 22:05 | 11.39505 | 100.40288 | 29988 ft | 458 kts | 2° |
| 2026-04-23 22:06 | 11.45873 | 100.40550 | 29988 ft | 458 kts | 2° |
| 2026-04-23 22:06 | 11.52247 | 100.40811 | 30012 ft | 458 kts | 2° |
| 2026-04-23 22:07 | 11.58614 | 100.41077 | 30004 ft | 457 kts | 2° |
| 2026-04-23 22:07 | 11.64977 | 100.41336 | 30007 ft | 457 kts | 2° |
| 2026-04-23 22:08 | 11.71300 | 100.41593 | 30018 ft | 457 kts | 2° |
| 2026-04-23 22:08 | 11.77659 | 100.41853 | 30009 ft | 457 kts | 2° |
| 2026-04-23 22:09 | 11.84019 | 100.42104 | 29999 ft | 457 kts | 2° |
| 2026-04-23 22:09 | 11.90367 | 100.42367 | 29998 ft | 456 kts | 2° |
| 2026-04-23 22:10 | 11.96713 | 100.42639 | 29996 ft | 456 kts | 2° |
| 2026-04-23 22:10 | 11.99890 | 100.42774 | 29996 ft | 456 kts | 2° |
| 2026-04-23 22:11 | 12.04383 | 100.42968 | 29995 ft | 456 kts | 2° |
| 2026-04-23 22:11 | 12.07557 | 100.43100 | 29995 ft | 456 kts | 2° |
| 2026-04-23 22:12 | 12.16652 | 100.43471 | 29995 ft | 456 kts | 2° |
| 2026-04-23 22:12 | 12.22972 | 100.43739 | 29995 ft | 456 kts | 2° |
| 2026-04-23 22:13 | 12.30188 | 100.44050 | 29995 ft | 456 kts | 2° |
| 2026-04-23 22:13 | 12.35639 | 100.44281 | 29996 ft | 456 kts | 2° |
| 2026-04-23 22:14 | 12.41946 | 100.44534 | 29960 ft | 458 kts | 2° |
| 2026-04-23 22:14 | 12.45135 | 100.44664 | 29705 ft | 459 kts | 2° |
| 2026-04-23 22:14 | 12.48339 | 100.44799 | 29453 ft | 460 kts | 2° |
| 2026-04-23 22:15 | 12.51534 | 100.44937 | 28864 ft | 459 kts | 2° |
| 2026-04-23 22:15 | 12.54715 | 100.45076 | 28191 ft | 456 kts | 2° |
| 2026-04-23 22:15 | 12.57867 | 100.45257 | 27630 ft | 450 kts | 7° |
| 2026-04-23 22:15 | 12.60889 | 100.46040 | 27477 ft | 449 kts | 19° |
| 2026-04-23 22:16 | 12.63829 | 100.47125 | 27354 ft | 448 kts | 19° |
| 2026-04-23 22:16 | 12.66757 | 100.48208 | 27229 ft | 447 kts | 20° |
| 2026-04-23 22:16 | 12.69681 | 100.49293 | 27104 ft | 446 kts | 20° |
| 2026-04-23 22:16 | 12.72559 | 100.50369 | 26980 ft | 446 kts | 20° |
| 2026-04-23 22:17 | 12.75470 | 100.51463 | 26855 ft | 445 kts | 20° |
| 2026-04-23 22:17 | 12.78375 | 100.52554 | 26730 ft | 444 kts | 20° |
| 2026-04-23 22:17 | 12.81273 | 100.53642 | 26567 ft | 443 kts | 20° |
| 2026-04-23 22:17 | 12.84146 | 100.54720 | 25986 ft | 438 kts | 20° |
| 2026-04-23 22:18 | 12.87001 | 100.55790 | 25340 ft | 435 kts | 20° |
| 2026-04-23 22:18 | 12.89835 | 100.56853 | 24702 ft | 431 kts | 20° |
| 2026-04-23 22:18 | 12.92634 | 100.57902 | 24072 ft | 427 kts | 20° |
| 2026-04-23 22:18 | 12.95375 | 100.58928 | 23453 ft | 422 kts | 20° |
| 2026-04-23 22:19 | 12.98123 | 100.59959 | 22843 ft | 418 kts | 20° |
| 2026-04-23 22:19 | 13.00837 | 100.60978 | 22244 ft | 413 kts | 20° |
| 2026-04-23 22:19 | 13.03520 | 100.61986 | 21805 ft | 406 kts | 20° |
| 2026-04-23 22:19 | 13.06156 | 100.62969 | 21314 ft | 400 kts | 19° |
| 2026-04-23 22:20 | 13.08770 | 100.63933 | 20787 ft | 397 kts | 19° |
| 2026-04-23 22:20 | 13.11363 | 100.64881 | 20262 ft | 394 kts | 19° |
| 2026-04-23 22:20 | 13.13936 | 100.65818 | 19755 ft | 390 kts | 19° |
| 2026-04-23 22:20 | 13.16448 | 100.66736 | 19253 ft | 386 kts | 19° |
| 2026-04-23 22:21 | 13.18966 | 100.67658 | 18744 ft | 382 kts | 19° |
| 2026-04-23 22:21 | 13.21457 | 100.68572 | 18232 ft | 378 kts | 19° |
| 2026-04-23 22:21 | 13.23928 | 100.69478 | 17486 ft | 379 kts | 19° |
| 2026-04-23 22:21 | 13.26418 | 100.70391 | 16805 ft | 380 kts | 19° |
| 2026-04-23 22:22 | 13.28898 | 100.71301 | 16200 ft | 377 kts | 19° |
| 2026-04-23 22:22 | 13.31360 | 100.72206 | 15597 ft | 374 kts | 19° |
| 2026-04-23 22:22 | 13.33801 | 100.73105 | 14995 ft | 370 kts | 19° |
| 2026-04-23 22:22 | 13.36217 | 100.73997 | 14394 ft | 367 kts | 19° |
| 2026-04-23 22:23 | 13.38609 | 100.74880 | 13795 ft | 364 kts | 19° |
| 2026-04-23 22:23 | 13.40956 | 100.75743 | 13203 ft | 361 kts | 19° |
| 2026-04-23 22:23 | 13.43311 | 100.76605 | 12602 ft | 358 kts | 19° |
| 2026-04-23 22:23 | 13.45647 | 100.77456 | 12001 ft | 355 kts | 19° |
| 2026-04-23 22:24 | 13.47964 | 100.78297 | 11402 ft | 352 kts | 19° |
| 2026-04-23 22:24 | 13.50258 | 100.79129 | 10809 ft | 348 kts | 19° |
| 2026-04-23 22:24 | 13.52534 | 100.79958 | 10220 ft | 346 kts | 19° |
| 2026-04-23 22:24 | 13.54795 | 100.80783 | 9694 ft | 341 kts | 19° |
| 2026-04-23 22:25 | 13.57019 | 100.81513 | 9476 ft | 328 kts | 16° |
| 2026-04-23 22:25 | 13.59168 | 100.82124 | 9346 ft | 313 kts | 14° |
| 2026-04-23 22:25 | 13.61237 | 100.82668 | 9220 ft | 301 kts | 13° |
| 2026-04-23 22:25 | 13.63202 | 100.83174 | 9096 ft | 290 kts | 14° |
| 2026-04-23 22:26 | 13.65122 | 100.83676 | 8969 ft | 280 kts | 14° |
| 2026-04-23 22:26 | 13.66975 | 100.84169 | 8842 ft | 271 kts | 14° |
| 2026-04-23 22:26 | 13.68769 | 100.84649 | 8714 ft | 262 kts | 14° |
| 2026-04-23 22:26 | 13.70507 | 100.85111 | 8589 ft | 254 kts | 14° |
| 2026-04-23 22:27 | 13.72203 | 100.85561 | 8392 ft | 250 kts | 14° |
| 2026-04-23 22:27 | 13.73878 | 100.86005 | 8126 ft | 248 kts | 14° |
| 2026-04-23 22:27 | 13.75544 | 100.86447 | 7839 ft | 247 kts | 14° |
| 2026-04-23 22:27 | 13.77207 | 100.86889 | 7556 ft | 246 kts | 14° |
| 2026-04-23 22:28 | 13.78860 | 100.87328 | 7265 ft | 245 kts | 14° |
| 2026-04-23 22:28 | 13.80508 | 100.87765 | 6975 ft | 244 kts | 14° |
| 2026-04-23 22:28 | 13.82148 | 100.88201 | 6685 ft | 243 kts | 14° |
| 2026-04-23 22:28 | 13.83782 | 100.88635 | 6395 ft | 242 kts | 14° |
| 2026-04-23 22:29 | 13.85387 | 100.89061 | 6101 ft | 241 kts | 14° |
| 2026-04-23 22:29 | 13.87029 | 100.89330 | 5801 ft | 238 kts | 354° |
| 2026-04-23 22:29 | 13.88535 | 100.88761 | 5617 ft | 227 kts | 321° |
| 2026-04-23 22:29 | 13.89424 | 100.87505 | 5459 ft | 214 kts | 288° |
| 2026-04-23 22:30 | 13.89760 | 100.86051 | 5345 ft | 205 kts | 280° |
| 2026-04-23 22:30 | 13.89976 | 100.84606 | 5177 ft | 203 kts | 273° |
| 2026-04-23 22:30 | 13.89708 | 100.83197 | 4890 ft | 201 kts | 248° |
| 2026-04-23 22:30 | 13.88968 | 100.81984 | 4512 ft | 201 kts | 227° |
| 2026-04-23 22:31 | 13.87849 | 100.81106 | 3986 ft | 206 kts | 207° |
| 2026-04-23 22:31 | 13.86495 | 100.80665 | 3536 ft | 204 kts | 194° |
| 2026-04-23 22:31 | 13.85158 | 100.80312 | 3221 ft | 192 kts | 194° |
| 2026-04-23 22:31 | 13.83876 | 100.79977 | 2949 ft | 189 kts | 194° |
| 2026-04-23 22:32 | 13.82610 | 100.79643 | 2711 ft | 187 kts | 195° |
| 2026-04-23 22:32 | 13.81376 | 100.79316 | 2451 ft | 180 kts | 195° |
| 2026-04-23 22:32 | 13.80177 | 100.78996 | 2208 ft | 177 kts | 195° |
| 2026-04-23 22:32 | 13.78989 | 100.78684 | 1982 ft | 175 kts | 194° |
| 2026-04-23 22:33 | 13.77812 | 100.78371 | 1733 ft | 174 kts | 194° |
| 2026-04-23 22:33 | 13.76638 | 100.78065 | 1515 ft | 173 kts | 194° |
| 2026-04-23 22:33 | 13.75490 | 100.77767 | 1318 ft | 169 kts | 194° |
| 2026-04-23 22:33 | 13.74396 | 100.77484 | 1080 ft | 157 kts | 195° |
| 2026-04-23 22:34 | 13.73371 | 100.77208 | 844 ft | 148 kts | 195° |
| 2026-04-23 22:34 | 13.72395 | 100.76948 | 674 ft | 143 kts | 194° |
| 2026-04-23 22:34 | 13.71441 | 100.76698 | 499 ft | 141 kts | 194° |
| 2026-04-23 22:34 | 13.70494 | 100.76454 | 314 ft | 140 kts | 194° |
| 2026-04-23 22:35 | 13.69553 | 100.76205 | 145 ft | 139 kts | 194° |
| 2026-04-23 22:35 | 13.68620 | 100.75960 | 22 ft | 130 kts | 194° |
| 2026-04-23 22:35 | 13.67850 | 100.75757 | 11 ft | 92 kts | 194° |
| 2026-04-23 22:35 | 13.67398 | 100.75639 | 13 ft | 39 kts | 194° |
| 2026-04-23 22:36 | 13.67234 | 100.75571 | 13 ft | 24 kts | 210° |
| 2026-04-23 22:36 | 13.67117 | 100.75472 | 15 ft | 13 kts | 227° |
| 2026-04-23 22:36 | 13.67088 | 100.75407 | 13 ft | 12 kts | 283° |
| 2026-04-23 22:36 | 13.67161 | 100.75385 | 13 ft | 14 kts | 14° |
| 2026-04-23 22:37 | 13.67261 | 100.75411 | 13 ft | 16 kts | 14° |
| 2026-04-23 22:37 | 13.67382 | 100.75443 | 13 ft | 19 kts | 14° |
| 2026-04-23 22:37 | 13.67520 | 100.75479 | 13 ft | 22 kts | 14° |
| 2026-04-23 22:37 | 13.67676 | 100.75520 | 13 ft | 25 kts | 14° |
| 2026-04-23 22:38 | 13.67851 | 100.75566 | 13 ft | 27 kts | 15° |
| 2026-04-23 22:38 | 13.68039 | 100.75616 | 13 ft | 24 kts | 14° |
| 2026-04-23 22:38 | 13.68143 | 100.75643 | 13 ft | 13 kts | 13° |
| 2026-04-23 22:38 | 13.68241 | 100.75668 | 13 ft | 16 kts | 14° |
| 2026-04-23 22:39 | 13.68355 | 100.75698 | 15 ft | 18 kts | 14° |
| 2026-04-23 22:39 | 13.68484 | 100.75733 | 14 ft | 21 kts | 14° |
| 2026-04-23 22:39 | 13.68632 | 100.75772 | 16 ft | 23 kts | 14° |
| 2026-04-23 22:39 | 13.68799 | 100.75816 | 15 ft | 26 kts | 14° |
| 2026-04-23 22:40 | 13.68965 | 100.75859 | 13 ft | 20 kts | 15° |
| 2026-04-23 22:40 | 13.69059 | 100.75883 | 13 ft | 12 kts | 9° |
| 2026-04-23 22:40 | 13.69139 | 100.75732 | 13 ft | 11 kts | 284° |
| 2026-04-23 22:41 | 13.69159 | 100.75651 | 13 ft | 8 kts | 284° |
| 2026-04-23 22:41 | 13.69129 | 100.75622 | 13 ft | 8 kts | 187° |
| 2026-04-23 22:41 | 13.69095 | 100.75613 | 13 ft | 3 kts | 195° |
| 2026-04-23 22:41 | 13.69082 | 100.75610 | 13 ft | 0 kts | 195° |